Time;durP1;ratioP1;P1;durP2;ratioP2;P2;SDS_P1;SDS_P2;PMS_P1;PMS_P2;Temp;Humidity;BMP_temperature;BMP_pressure;BME280_temperature;BME280_humidity;BME280_pressure;Samples;Min_cycle;Max_cycle;Signal;HPM_P1;HPM_P2
2023/01/07 00:01:18;;;;;;;14.63;8.45;;;;;;;9.95;100.00;101480.97;5030819;28;20036;-37
2023/01/07 00:03:45;;;;;;;9.63;7.50;;;;;;;9.96;100.00;101477.28;5035039;28;20052;-38
2023/01/07 00:06:21;;;;;;;10.63;7.88;;;;;;;9.96;100.00;101474.59;5050808;28;20037;-39
2023/01/07 00:08:49;;;;;;;11.07;8.05;;;;;;;9.99;100.00;101470.75;5043318;28;20167;-39
2023/01/07 00:11:16;;;;;;;9.13;7.23;;;;;;;10.00;100.00;101464.34;5029312;28;20155;-40
2023/01/07 00:13:47;;;;;;;10.27;7.50;;;;;;;10.01;100.00;101455.28;5031164;28;20382;-40
2023/01/07 00:16:14;;;;;;;11.25;7.30;;;;;;;10.01;100.00;101457.97;5045324;28;20036;-40
2023/01/07 00:18:40;;;;;;;9.43;6.72;;;;;;;10.01;100.00;101452.59;5030583;28;20099;-40
2023/01/07 00:21:08;;;;;;;9.50;6.35;;;;;;;10.02;100.00;101459.66;5034470;28;20102;-40
2023/01/07 00:23:34;;;;;;;10.98;6.50;;;;;;;10.03;100.00;101450.56;5031694;28;20048;-39
2023/01/07 00:26:05;;;;;;;12.35;5.97;;;;;;;10.02;100.00;101456.97;5031585;28;20044;-39
2023/01/07 00:28:32;;;;;;;9.10;5.97;;;;;;;10.01;100.00;101452.59;5030279;28;20041;-38
2023/01/07 00:31:03;;;;;;;8.55;5.57;;;;;;;10.02;100.00;101465.03;5046635;28;20989;-39
2023/01/07 00:33:29;;;;;;;9.50;5.80;;;;;;;10.03;100.00;101456.81;5029734;28;20135;-37
2023/01/07 00:36:01;;;;;;;10.90;5.88;;;;;;;10.03;100.00;101450.56;5045075;28;20507;-40
2023/01/07 00:38:27;;;;;;;8.40;5.90;;;;;;;10.03;100.00;101445.19;5028687;28;20040;-39
2023/01/07 00:40:52;;;;;;;8.40;5.60;;;;;;;10.01;100.00;101433.78;5034595;28;20029;-38
2023/01/07 00:43:18;;;;;;;10.57;5.20;;;;;;;10.04;100.00;101433.44;5048392;28;20575;-40
2023/01/07 00:45:43;;;;;;;10.82;5.28;;;;;;;10.02;100.00;101425.53;5032128;28;20385;-39
2023/01/07 00:48:09;;;;;;;9.45;5.60;;;;;;;10.03;100.00;101423.69;5048295;28;20097;-40
2023/01/07 00:50:35;;;;;;;12.43;5.43;;;;;;;10.04;100.00;101420.00;5047451;28;20091;-40
2023/01/07 00:53:02;;;;;;;11.43;5.30;;;;;;;10.03;100.00;101413.78;5029875;28;20044;-40
2023/01/07 00:55:27;;;;;;;7.68;4.78;;;;;;;10.03;100.00;101413.78;5046768;28;20435;-40
2023/01/07 00:57:53;;;;;;;10.07;5.10;;;;;;;10.04;100.00;101406.56;5033043;28;20041;-39
2023/01/07 01:00:20;;;;;;;7.82;4.57;;;;;;;10.04;100.00;101406.56;5039927;28;20151;-40
2023/01/07 01:02:46;;;;;;;9.43;4.63;;;;;;;10.04;100.00;101395.81;5048744;28;20029;-39
2023/01/07 01:05:12;;;;;;;9.25;4.93;;;;;;;10.03;100.00;101396.78;5035664;28;20029;-40
2023/01/07 01:07:38;;;;;;;11.98;5.20;;;;;;;10.00;100.00;101391.75;5029166;28;20107;-39
2023/01/07 01:10:05;;;;;;;7.75;4.60;;;;;;;9.98;100.00;101383.00;5033268;28;20033;-39
2023/01/07 01:12:33;;;;;;;9.95;4.85;;;;;;;9.94;100.00;101387.03;5029659;28;20034;-38
2023/01/07 01:14:58;;;;;;;9.43;4.70;;;;;;;9.91;100.00;101384.69;5043764;28;20040;-40
2023/01/07 01:17:23;;;;;;;6.50;4.68;;;;;;;9.91;100.00;101380.13;5038738;28;20044;-39
2023/01/07 01:19:49;;;;;;;12.40;5.63;;;;;;;9.89;100.00;101374.06;5034059;28;20036;-39
2023/01/07 01:22:14;;;;;;;10.50;5.68;;;;;;;9.86;100.00;101390.53;5040150;28;20056;-39
2023/01/07 01:24:39;;;;;;;8.70;4.68;;;;;;;9.84;100.00;101379.94;5033738;28;20037;-38
2023/01/07 01:27:05;;;;;;;8.45;4.82;;;;;;;9.82;100.00;101379.28;5029293;28;20092;-38
2023/01/07 01:29:30;;;;;;;6.65;4.45;;;;;;;9.80;100.00;101373.22;5029632;28;20488;-39
2023/01/07 01:31:55;;;;;;;8.07;4.50;;;;;;;9.77;100.00;101370.88;5036182;28;20167;-40
2023/01/07 01:34:21;;;;;;;8.60;4.85;;;;;;;9.76;100.00;101369.16;5029615;28;20056;-39
2023/01/07 01:36:46;;;;;;;9.80;4.30;;;;;;;9.75;100.00;101362.13;5029608;28;20104;-39
2023/01/07 01:39:11;;;;;;;10.68;5.88;;;;;;;9.78;100.00;101356.41;5029657;28;20037;-38
2023/01/07 01:41:37;;;;;;;7.80;4.90;;;;;;;9.78;100.00;101364.47;5038389;28;20176;-40
2023/01/07 01:44:39;;;;;;;8.48;4.95;;;;;;;9.80;100.00;101359.78;5043436;28;20381;-39
2023/01/07 01:47:19;;;;;;;9.50;5.03;;;;;;;9.84;100.00;101358.44;5028030;28;20061;-39
2023/01/07 01:49:50;;;;;;;9.20;4.85;;;;;;;9.85;100.00;101359.28;5029609;28;20064;-38
2023/01/07 01:52:17;;;;;;;8.00;4.60;;;;;;;9.83;100.00;101358.63;5035345;28;20052;-40
2023/01/07 01:54:46;;;;;;;9.87;4.77;;;;;;;9.88;100.00;101357.09;5039284;28;20037;-40
2023/01/07 01:57:12;;;;;;;16.10;5.45;;;;;;;9.92;100.00;101364.84;5047880;28;20267;-37
2023/01/07 01:59:41;;;;;;;12.45;4.82;;;;;;;9.89;100.00;101368.69;5047353;28;20025;-40
2023/01/07 02:02:06;;;;;;;8.50;4.93;;;;;;;9.92;100.00;101356.78;5032715;28;20035;-40
2023/01/07 02:04:32;;;;;;;8.18;4.95;;;;;;;9.90;100.00;101354.28;5021766;28;20124;-40
2023/01/07 02:07:00;;;;;;;9.10;4.90;;;;;;;9.94;100.00;101336.78;5029493;28;20024;-38
2023/01/07 02:09:25;;;;;;;9.63;5.25;;;;;;;9.87;100.00;101347.38;5027901;28;20041;-38
2023/01/07 02:11:59;;;;;;;10.10;5.00;;;;;;;9.81;100.00;101339.94;5030776;28;20037;-39
2023/01/07 02:14:46;;;;;;;14.20;5.20;;;;;;;9.76;100.00;101346.81;5040883;28;20029;-39
2023/01/07 02:17:30;;;;;;;8.90;5.07;;;;;;;9.74;100.00;101335.38;5030382;28;20041;-39
2023/01/07 02:20:07;;;;;;;12.32;5.45;;;;;;;9.74;100.00;101338.94;5048877;28;20817;-39
2023/01/07 02:22:51;;;;;;;7.15;4.80;;;;;;;9.75;100.00;101340.63;5047777;28;20492;-39
2023/01/07 02:25:42;;;;;;;17.33;5.25;;;;;;;9.75;100.00;101332.56;5048334;28;20056;-38
2023/01/07 02:28:52;;;;;;;9.05;4.80;;;;;;;9.75;100.00;101335.25;5043332;28;20153;-39
2023/01/07 02:31:22;;;;;;;9.82;4.75;;;;;;;9.76;100.00;101342.28;5028933;28;20060;-39
2023/01/07 02:34:00;;;;;;;9.10;4.38;;;;;;;9.74;100.00;101333.56;5043022;28;20080;-39
2023/01/07 02:36:30;;;;;;;7.35;4.82;;;;;;;9.72;100.00;101330.19;5047370;28;20380;-39
2023/01/07 02:39:08;;;;;;;11.20;5.03;;;;;;;9.71;100.00;101325.81;5047898;28;20039;-38
2023/01/07 02:41:45;;;;;;;9.15;3.83;;;;;;;9.76;100.00;101326.16;5050681;28;20036;-39
2023/01/07 02:44:19;;;;;;;12.40;4.72;;;;;;;9.76;100.00;101326.16;5031920;28;20029;-38
2023/01/07 02:46:51;;;;;;;11.55;4.32;;;;;;;9.79;100.00;101306.16;5050520;28;20033;-40
2023/01/07 02:49:17;;;;;;;7.72;4.28;;;;;;;9.82;100.00;101319.28;5051005;28;20025;-38
2023/01/07 02:51:43;;;;;;;13.13;4.47;;;;;;;9.85;100.00;101302.84;5041253;28;20040;-37
2023/01/07 02:54:13;;;;;;;7.18;3.90;;;;;;;9.85;100.00;101301.00;5031986;28;20087;-39
2023/01/07 02:56:45;;;;;;;7.40;3.88;;;;;;;9.82;100.00;101312.06;5031929;28;20037;-38
2023/01/07 02:59:22;;;;;;;6.22;4.05;;;;;;;9.79;100.00;101307.00;5032195;28;20117;-39
2023/01/07 03:02:12;;;;;;;11.40;4.68;;;;;;;9.77;100.00;101303.66;5032528;28;20037;-39
2023/01/07 03:04:52;;;;;;;11.98;4.43;;;;;;;9.78;100.00;101299.13;5036648;28;20041;-40
2023/01/07 03:07:17;;;;;;;8.18;4.55;;;;;;;9.78;100.00;101294.59;5032111;28;20552;-38
2023/01/07 03:10:01;;;;;;;11.43;4.82;;;;;;;9.77;100.00;101290.22;5031881;28;20038;-40
2023/01/07 03:12:54;;;;;;;11.55;4.28;;;;;;;9.78;100.00;101291.91;5031698;28;20952;-39
2023/01/07 03:15:43;;;;;;;6.25;4.05;;;;;;;9.76;100.00;101283.16;5030361;28;20108;-37
2023/01/07 03:18:25;;;;;;;15.30;5.72;;;;;;;9.76;100.00;101283.16;5035877;28;20111;-40
2023/01/07 03:20:53;;;;;;;12.27;4.47;;;;;;;9.71;100.00;101277.44;5050143;28;20052;-37
2023/01/07 03:23:21;;;;;;;9.20;4.45;;;;;;;9.72;100.00;101281.81;5035763;28;20091;-38
2023/01/07 03:25:49;;;;;;;9.75;4.43;;;;;;;9.71;100.00;101280.13;5037547;28;20113;-38
2023/01/07 03:28:16;;;;;;;10.55;5.07;;;;;;;9.68;100.00;101277.75;5031657;28;20459;-36
2023/01/07 03:30:42;;;;;;;7.53;4.63;;;;;;;9.66;100.00;101271.72;5030131;28;20037;-37
2023/01/07 03:33:15;;;;;;;11.50;5.10;;;;;;;9.62;100.00;101281.13;5034873;28;20060;-39
2023/01/07 03:35:41;;;;;;;9.90;5.00;;;;;;;9.60;100.00;101267.84;5031365;28;20046;-39
2023/01/07 03:38:08;;;;;;;8.43;4.30;;;;;;;9.59;100.00;101270.72;5029850;28;20395;-40
2023/01/07 03:40:33;;;;;;;7.90;5.05;;;;;;;9.56;100.00;101271.03;5031292;28;20087;-39
2023/01/07 03:42:59;;;;;;;8.90;4.72;;;;;;;9.61;100.00;101265.97;5034265;28;20041;-40
2023/01/07 03:45:25;;;;;;;9.88;5.75;;;;;;;9.58;100.00;101260.94;5043285;28;20033;-40
2023/01/07 03:47:53;;;;;;;5.45;4.18;;;;;;;9.55;100.00;101254.06;5051129;28;20037;-39
2023/01/07 03:50:18;;;;;;;9.30;5.47;;;;;;;9.58;100.00;101258.25;5051171;28;20039;-39
2023/01/07 03:52:44;;;;;;;9.23;4.70;;;;;;;9.59;100.00;101255.41;5036525;28;20371;-40
2023/01/07 03:55:10;;;;;;;8.38;4.20;;;;;;;9.60;100.00;101257.09;5036023;28;20041;-39
2023/01/07 03:57:36;;;;;;;8.82;4.95;;;;;;;9.64;100.00;101244.19;5030886;28;20087;-38
2023/01/07 04:00:02;;;;;;;12.80;5.40;;;;;;;9.66;100.00;101244.84;5030862;28;20026;-40
2023/01/07 04:02:28;;;;;;;10.23;4.70;;;;;;;9.68;100.00;101253.56;5031396;28;20030;-39
2023/01/07 04:04:53;;;;;;;11.00;4.55;;;;;;;9.73;100.00;101240.47;5030979;28;20098;-37
2023/01/07 04:07:18;;;;;;;9.68;4.55;;;;;;;9.70;100.00;101231.91;5050877;28;20127;-40
2023/01/07 04:09:46;;;;;;;10.85;4.78;;;;;;;9.67;100.00;101241.16;5032831;28;20045;-38
2023/01/07 04:12:12;;;;;;;13.25;4.97;;;;;;;9.74;100.00;101231.44;5030899;28;20131;-39
2023/01/07 04:14:38;;;;;;;9.80;4.80;;;;;;;9.78;100.00;101232.75;5046735;28;20029;-40
2023/01/07 04:17:04;;;;;;;8.88;5.03;;;;;;;9.80;100.00;101228.06;5049330;28;20575;-39
2023/01/07 04:19:29;;;;;;;12.82;5.05;;;;;;;9.86;100.00;101218.47;5049256;28;20029;-38
2023/01/07 04:21:54;;;;;;;8.77;4.95;;;;;;;9.88;100.00;101211.94;5030798;28;20035;-40
2023/01/07 04:24:20;;;;;;;12.15;4.97;;;;;;;9.78;100.00;101216.63;5037923;28;20029;-39
2023/01/07 04:26:45;;;;;;;10.63;5.43;;;;;;;9.72;100.00;101217.31;5050488;28;20039;-39
2023/01/07 04:29:10;;;;;;;9.98;5.43;;;;;;;9.75;100.00;101214.28;5050527;28;20020;-40
2023/01/07 04:31:36;;;;;;;13.55;5.28;;;;;;;9.78;100.00;101205.88;5042352;28;20025;-37
2023/01/07 04:34:01;;;;;;;9.38;5.22;;;;;;;9.79;100.00;101206.72;5031668;28;20061;-38
2023/01/07 04:36:28;;;;;;;12.80;5.07;;;;;;;9.77;100.00;101212.28;5050189;28;20524;-38
2023/01/07 04:38:53;;;;;;;10.68;5.90;;;;;;;9.73;100.00;101208.22;5048172;28;20059;-40
2023/01/07 04:41:19;;;;;;;13.75;5.80;;;;;;;9.79;100.00;101204.84;5047728;28;20417;-38
2023/01/07 04:43:44;;;;;;;12.00;5.43;;;;;;;9.74;100.00;101207.25;5041806;28;20032;-39
2023/01/07 04:46:09;;;;;;;14.68;6.10;;;;;;;9.73;100.00;101202.84;5050271;28;20060;-39
2023/01/07 04:48:35;;;;;;;14.80;6.70;;;;;;;9.67;100.00;101196.31;5039378;28;20028;-38
2023/01/07 04:51:00;;;;;;;9.40;6.30;;;;;;;9.66;100.00;101207.22;5030024;28;20163;-37
2023/01/07 04:53:25;;;;;;;14.15;6.95;;;;;;;9.65;100.00;101189.41;5029199;28;20044;-38
2023/01/07 04:55:52;;;;;;;10.27;6.22;;;;;;;9.73;100.00;101194.78;5047118;28;20400;-40
2023/01/07 04:58:17;;;;;;;11.35;6.53;;;;;;;9.73;100.00;101185.88;5047711;28;20029;-37
2023/01/07 05:00:44;;;;;;;23.63;7.75;;;;;;;9.70;100.00;101181.69;5029719;28;20040;-38
2023/01/07 05:03:10;;;;;;;12.15;6.22;;;;;;;9.77;100.00;101177.34;5034185;28;20025;-40
2023/01/07 05:05:35;;;;;;;13.70;7.32;;;;;;;9.76;100.00;101175.63;5028765;28;20491;-39
2023/01/07 05:08:00;;;;;;;13.15;7.20;;;;;;;9.77;100.00;101169.25;5029651;28;20048;-37
2023/01/07 05:10:26;;;;;;;15.95;7.53;;;;;;;9.70;100.00;101176.31;5029629;28;20045;-38
2023/01/07 05:12:51;;;;;;;14.82;7.47;;;;;;;9.62;100.00;101179.00;5028460;28;20636;-36
2023/01/07 05:15:16;;;;;;;12.52;7.85;;;;;;;9.51;100.00;101172.13;5047631;28;20071;-38
2023/01/07 05:17:42;;;;;;;17.63;8.23;;;;;;;9.50;100.00;101170.41;5049562;28;20032;-36
2023/01/07 05:20:08;;;;;;;15.13;8.60;;;;;;;9.56;100.00;101174.31;5049482;28;20056;-39
2023/01/07 05:22:33;;;;;;;18.83;9.48;;;;;;;9.57;100.00;101175.97;5040799;28;20032;-39
2023/01/07 05:24:58;;;;;;;20.33;10.25;;;;;;;9.54;100.00;101170.94;5035432;28;20065;-39
2023/01/07 05:27:24;;;;;;;16.65;9.45;;;;;;;9.56;100.00;101175.16;5045741;28;20024;-39
2023/01/07 05:29:49;;;;;;;22.55;11.40;;;;;;;9.52;100.00;101162.19;5049375;28;20033;-38
2023/01/07 05:32:15;;;;;;;19.80;11.43;;;;;;;9.56;100.00;101163.56;5037647;28;20112;-39
2023/01/07 05:34:40;;;;;;;20.95;11.93;;;;;;;9.59;100.00;101158.69;5037190;28;20163;-39
2023/01/07 05:37:05;;;;;;;20.85;11.95;;;;;;;9.50;100.00;101159.66;5048915;28;20653;-37
2023/01/07 05:39:31;;;;;;;22.08;9.75;;;;;;;9.55;100.00;101162.69;5049109;28;20529;-39
2023/01/07 05:41:56;;;;;;;23.48;9.52;;;;;;;9.49;100.00;101155.31;5041302;28;20176;-38
2023/01/07 05:44:21;;;;;;;17.08;8.98;;;;;;;9.43;100.00;101154.13;5031921;28;20042;-38
2023/01/07 05:46:46;;;;;;;16.80;8.25;;;;;;;9.38;100.00;101140.38;5047660;28;20029;-39
2023/01/07 05:49:12;;;;;;;19.00;8.10;;;;;;;9.38;100.00;101140.38;5049289;28;20025;-39
2023/01/07 05:51:37;;;;;;;14.75;7.50;;;;;;;9.41;100.00;101141.88;5043109;28;20056;-38
2023/01/07 05:54:03;;;;;;;17.83;7.55;;;;;;;9.37;100.00;101133.31;5031703;28;20056;-38
2023/01/07 05:56:28;;;;;;;11.93;6.80;;;;;;;9.33;100.00;101131.97;5040905;28;20033;-38
2023/01/07 05:58:53;;;;;;;9.20;6.47;;;;;;;9.32;100.00;101119.56;5036854;28;20059;-39
2023/01/07 06:01:19;;;;;;;15.90;6.63;;;;;;;9.37;100.00;101110.97;5044530;28;20029;-39
2023/01/07 06:03:44;;;;;;;12.15;6.25;;;;;;;9.42;100.00;101114.84;5040141;28;20072;-37
2023/01/07 06:06:09;;;;;;;12.23;6.20;;;;;;;9.35;100.00;101111.16;5029570;28;20031;-39
2023/01/07 06:08:36;;;;;;;13.20;5.80;;;;;;;9.30;100.00;101108.13;5051406;28;20021;-39
2023/01/07 06:11:02;;;;;;;12.23;5.88;;;;;;;9.32;100.00;101103.44;5051116;28;20051;-39
2023/01/07 06:13:27;;;;;;;13.30;6.10;;;;;;;9.34;100.00;101106.78;5048012;28;20428;-38
2023/01/07 06:15:58;;;;;;;8.70;5.18;;;;;;;9.31;100.00;101101.75;5052469;28;20124;-37
2023/01/07 06:18:23;;;;;;;13.77;5.70;;;;;;;9.35;100.00;101097.72;5052994;28;20098;-39
2023/01/07 06:20:50;;;;;;;9.10;5.70;;;;;;;9.33;100.00;101096.22;5048291;28;20021;-36
2023/01/07 06:23:15;;;;;;;10.88;4.88;;;;;;;9.34;100.00;101090.66;5046604;28;20048;-36
2023/01/07 06:25:40;;;;;;;12.45;5.15;;;;;;;9.34;100.00;101089.81;5032637;28;20030;-39
2023/01/07 06:28:06;;;;;;;12.40;5.13;;;;;;;9.29;100.00;101084.13;5048464;28;20044;-39
2023/01/07 06:30:31;;;;;;;9.60;4.82;;;;;;;9.30;100.00;101081.28;5072979;28;20035;-37
2023/01/07 06:32:56;;;;;;;6.68;4.40;;;;;;;9.29;100.00;101076.06;5047675;28;20362;-39
2023/01/07 06:35:22;;;;;;;9.10;4.68;;;;;;;9.36;100.00;101071.69;5047568;28;20471;-37
2023/01/07 06:37:47;;;;;;;9.38;4.35;;;;;;;9.36;100.00;101059.09;5041496;28;20041;-39
2023/01/07 06:40:12;;;;;;;9.70;4.50;;;;;;;9.33;100.00;101070.19;5033593;28;20034;-39
2023/01/07 06:42:38;;;;;;;10.98;4.53;;;;;;;9.31;100.00;101069.50;5036179;28;20044;-38
2023/01/07 06:45:03;;;;;;;8.57;4.03;;;;;;;9.29;100.00;101063.47;5038200;28;20407;-39
2023/01/07 06:47:29;;;;;;;5.93;4.03;;;;;;;9.27;100.00;101075.38;5051902;28;20032;-39
2023/01/07 06:49:54;;;;;;;10.93;3.70;;;;;;;9.31;100.00;101058.75;5046063;28;20115;-36
2023/01/07 06:52:20;;;;;;;9.43;4.07;;;;;;;9.29;100.00;101066.16;5035012;28;20064;-38
2023/01/07 06:54:45;;;;;;;13.10;4.10;;;;;;;9.28;100.00;101069.84;5040492;28;20029;-39
2023/01/07 06:57:11;;;;;;;7.32;3.40;;;;;;;9.28;100.00;101058.28;5032995;28;20236;-39
2023/01/07 06:59:36;;;;;;;6.80;3.50;;;;;;;9.31;100.00;101060.63;5032140;28;20060;-40
2023/01/07 07:02:01;;;;;;;13.25;3.33;;;;;;;9.38;100.00;101051.72;5032435;28;20053;-40
2023/01/07 07:04:27;;;;;;;8.63;3.72;;;;;;;9.35;100.00;101046.69;5030912;28;20042;-37
2023/01/07 07:06:52;;;;;;;7.45;3.30;;;;;;;9.34;100.00;101045.00;5048774;28;20334;-39
2023/01/07 07:09:17;;;;;;;7.13;3.50;;;;;;;9.40;100.00;101043.47;5052125;28;20388;-37
2023/01/07 07:11:43;;;;;;;4.60;3.42;;;;;;;9.41;100.00;101037.94;5051861;28;20048;-39
2023/01/07 07:14:08;;;;;;;7.07;2.90;;;;;;;9.40;100.00;101035.41;5050540;28;20025;-39
2023/01/07 07:16:33;;;;;;;5.82;2.42;;;;;;;9.41;100.00;101032.56;5049793;28;20041;-37
2023/01/07 07:18:59;;;;;;;5.53;2.67;;;;;;;9.50;100.00;101025.34;5052037;28;20100;-37
2023/01/07 07:21:24;;;;;;;6.13;2.40;;;;;;;9.51;100.00;101013.59;5051846;28;20457;-38
2023/01/07 07:23:49;;;;;;;6.00;2.30;;;;;;;9.52;100.00;101012.56;5041737;28;20133;-37
2023/01/07 07:26:15;;;;;;;7.78;2.42;;;;;;;9.52;100.00;101009.88;5039248;28;20128;-39
2023/01/07 07:28:41;;;;;;;4.43;2.22;;;;;;;9.56;100.00;101003.19;5031818;28;20061;-37
2023/01/07 07:31:07;;;;;;;3.15;2.40;;;;;;;9.53;100.00;101008.91;5034336;28;20652;-39
2023/01/07 07:33:33;;;;;;;4.72;2.28;;;;;;;9.59;100.00;101004.69;5040181;28;20083;-39
2023/01/07 07:35:58;;;;;;;4.22;2.10;;;;;;;9.63;100.00;101014.06;5031511;28;20426;-38
2023/01/07 07:38:23;;;;;;;6.18;1.88;;;;;;;9.61;100.00;101000.81;5031459;28;20027;-37
2023/01/07 07:40:49;;;;;;;8.40;2.17;;;;;;;9.61;100.00;100995.44;5036120;28;20037;-38
2023/01/07 07:43:14;;;;;;;3.03;2.00;;;;;;;9.65;100.00;100990.53;5036092;28;20103;-37
2023/01/07 07:45:40;;;;;;;5.05;1.80;;;;;;;9.65;100.00;100987.84;5034799;28;20362;-36
2023/01/07 07:48:07;;;;;;;4.07;1.65;;;;;;;9.70;100.00;100981.97;5037699;28;20044;-39
2023/01/07 07:50:32;;;;;;;3.50;1.73;;;;;;;9.72;100.00;100972.72;5030790;28;20032;-39
2023/01/07 07:52:58;;;;;;;3.58;1.80;;;;;;;9.71;100.00;100971.03;5033832;28;20229;-39
2023/01/07 07:55:23;;;;;;;5.93;1.58;;;;;;;9.79;100.00;100965.63;5033935;28;20038;-37
2023/01/07 07:57:48;;;;;;;2.65;1.70;;;;;;;9.72;100.00;100959.28;5030797;28;20036;-37
2023/01/07 08:00:14;;;;;;;4.47;2.70;;;;;;;9.67;100.00;100958.97;5039902;28;20053;-39
2023/01/07 08:02:39;;;;;;;8.18;1.42;;;;;;;9.64;100.00;100970.06;5031517;28;20200;-37
2023/01/07 08:05:05;;;;;;;4.57;1.35;;;;;;;9.70;100.00;100955.94;5031126;28;20043;-38
2023/01/07 08:07:30;;;;;;;3.22;1.75;;;;;;;9.70;100.00;100961.31;5058149;28;20110;-38
2023/01/07 08:09:55;;;;;;;4.97;1.58;;;;;;;9.70;100.00;100957.78;5041040;28;20403;-38
2023/01/07 08:12:21;;;;;;;2.53;1.52;;;;;;;9.67;100.00;100951.75;5047562;28;20041;-39
2023/01/07 08:14:46;;;;;;;3.72;1.60;;;;;;;9.69;100.00;100954.28;5045033;28;20036;-39
2023/01/07 08:17:12;;;;;;;7.45;2.58;;;;;;;9.71;100.00;100957.59;5037115;28;20035;-39
2023/01/07 08:19:37;;;;;;;2.75;1.40;;;;;;;9.77;100.00;100948.00;5048547;28;20132;-40
2023/01/07 08:22:02;;;;;;;3.00;1.50;;;;;;;9.80;100.00;100951.19;5049541;28;20135;-40
2023/01/07 08:24:28;;;;;;;6.80;1.80;;;;;;;9.81;100.00;100949.34;5047391;28;20104;-40
2023/01/07 08:26:54;;;;;;;3.75;1.38;;;;;;;9.79;100.00;100944.13;5029389;28;20026;-39
2023/01/07 08:29:21;;;;;;;6.65;1.73;;;;;;;9.80;100.00;100943.13;5028634;28;20037;-39
2023/01/07 08:31:47;;;;;;;3.28;1.42;;;;;;;9.84;100.00;100941.75;5028282;28;20535;-38
2023/01/07 08:34:12;;;;;;;4.28;1.45;;;;;;;9.82;100.00;100951.00;5032222;28;20192;-40
2023/01/07 08:36:37;;;;;;;3.05;1.48;;;;;;;9.85;100.00;100942.63;5047034;28;20036;-40
2023/01/07 08:39:03;;;;;;;3.35;1.58;;;;;;;9.98;100.00;100950.09;5048790;28;20056;-38
2023/01/07 08:41:28;;;;;;;2.63;1.58;;;;;;;9.94;100.00;100946.94;5048767;28;20021;-40
2023/01/07 08:43:54;;;;;;;3.95;1.55;;;;;;;9.93;100.00;100939.88;5033772;28;20063;-37
2023/01/07 08:46:19;;;;;;;5.70;1.63;;;;;;;9.94;100.00;100946.09;5028212;28;20065;-37
2023/01/07 08:48:44;;;;;;;3.90;1.45;;;;;;;9.97;100.00;100938.50;5028935;28;20087;-39
2023/01/07 08:51:10;;;;;;;3.58;1.30;;;;;;;9.99;100.00;100925.72;5029284;28;20029;-39
2023/01/07 08:53:35;;;;;;;1.92;1.15;;;;;;;9.98;100.00;100936.66;5028753;28;20052;-39
2023/01/07 08:56:00;;;;;;;3.65;1.63;;;;;;;9.99;100.00;100927.59;5030505;28;20041;-41
2023/01/07 08:58:26;;;;;;;3.90;1.60;;;;;;;9.98;100.00;100920.50;5028718;28;20034;-40
2023/01/07 09:00:51;;;;;;;2.28;1.17;;;;;;;10.10;100.00;100921.81;5026685;28;20022;-38
2023/01/07 09:03:17;;;;;;;5.82;1.15;;;;;;;10.04;100.00;100909.06;5047100;28;20025;-39
2023/01/07 09:05:42;;;;;;;2.75;1.30;;;;;;;10.09;100.00;100902.16;5033563;28;20036;-39
2023/01/07 09:08:08;;;;;;;3.00;1.20;;;;;;;10.03;100.00;100896.63;5033520;28;20078;-40
2023/01/07 09:10:33;;;;;;;2.50;1.10;;;;;;;10.00;100.00;100900.50;5043695;28;20037;-39
2023/01/07 09:12:58;;;;;;;2.83;1.42;;;;;;;10.08;100.00;100902.31;5036120;28;20469;-39
2023/01/07 09:15:24;;;;;;;5.72;1.27;;;;;;;10.14;100.00;100896.25;5038996;28;20028;-39
2023/01/07 09:17:49;;;;;;;2.22;1.13;;;;;;;10.14;100.00;100893.56;5030412;28;20476;-37
2023/01/07 09:20:15;;;;;;;2.00;1.17;;;;;;;10.09;100.00;100895.94;5028707;28;20086;-39
2023/01/07 09:22:40;;;;;;;2.35;1.10;;;;;;;10.07;100.00;100876.44;5029088;28;20059;-34
2023/01/07 09:25:06;;;;;;;1.83;1.02;;;;;;;10.13;100.00;100880.28;5031329;28;20418;-39
2023/01/07 09:27:31;;;;;;;2.42;0.90;;;;;;;10.15;100.00;100879.09;5032440;28;20550;-41
2023/01/07 09:29:57;;;;;;;1.48;1.20;;;;;;;10.11;100.00;100867.03;5050323;28;20594;-35
2023/01/07 09:32:27;;;;;;;3.10;1.00;;;;;;;10.13;100.00;100862.28;5049163;28;20033;-38
2023/01/07 09:34:53;;;;;;;2.70;1.20;;;;;;;10.15;100.00;100846.81;5049910;28;20037;-37
2023/01/07 09:37:19;;;;;;;5.35;1.10;;;;;;;10.20;100.00;100854.34;5049019;28;20103;-39
2023/01/07 09:39:44;;;;;;;1.35;0.95;;;;;;;10.11;100.00;100851.72;5048005;28;20522;-37
2023/01/07 09:42:30;;;;;;;2.42;0.73;;;;;;;10.20;100.00;100857.88;5044833;28;20025;-39
2023/01/07 09:44:58;;;;;;;4.70;1.40;;;;;;;10.26;100.00;100842.88;5036438;28;20030;-38
2023/01/07 09:47:25;;;;;;;1.67;0.95;;;;;;;10.26;100.00;100832.94;5029138;28;20029;-37
2023/01/07 09:49:54;;;;;;;1.58;0.70;;;;;;;10.27;100.00;100825.72;5032913;28;20035;-37
2023/01/07 09:52:24;;;;;;;3.75;1.00;;;;;;;10.20;100.00;100833.66;5031915;28;20017;-38
2023/01/07 09:54:54;;;;;;;1.50;0.80;;;;;;;10.26;100.00;100832.09;5034249;28;20116;-38
2023/01/07 09:57:19;;;;;;;2.97;1.20;;;;;;;10.35;100.00;100809.53;5048845;28;20465;-39
2023/01/07 09:59:45;;;;;;;1.63;0.90;;;;;;;10.36;100.00;100821.13;5041148;28;20106;-39
2023/01/07 10:02:25;;;;;;;5.53;1.00;;;;;;;10.43;100.00;100805.94;5044387;28;20040;-36
2023/01/07 10:04:58;;;;;;;2.08;0.77;;;;;;;10.42;100.00;100794.31;5050089;28;20033;-37
2023/01/07 10:07:38;;;;;;;3.33;1.30;;;;;;;10.50;100.00;100798.81;5034066;28;20017;-39
2023/01/07 10:10:06;;;;;;;1.60;1.13;;;;;;;10.49;100.00;100797.13;5050999;28;20087;-39
2023/01/07 10:12:44;;;;;;;2.38;1.10;;;;;;;10.56;100.00;100800.78;5053696;28;20051;-36
2023/01/07 10:15:41;;;;;;;2.58;1.10;;;;;;;10.59;100.00;100788.81;5049903;28;20113;-36
2023/01/07 10:18:25;;;;;;;1.33;1.02;;;;;;;10.75;100.00;100789.47;5026682;28;20057;-37
2023/01/07 10:21:11;;;;;;;1.25;0.82;;;;;;;10.93;100.00;100777.50;5042383;28;20539;-38
2023/01/07 10:23:41;;;;;;;2.00;0.80;;;;;;;10.94;100.00;100787.25;5052125;28;20299;-38
2023/01/07 10:26:20;;;;;;;1.60;0.82;;;;;;;10.86;100.00;100752.34;5042548;28;20040;-37
2023/01/07 10:28:50;;;;;;;1.90;0.90;;;;;;;10.83;100.00;100758.09;5032242;28;20091;-38
2023/01/07 10:31:22;;;;;;;2.78;1.17;;;;;;;10.89;100.00;100741.19;5032087;28;20025;-39
2023/01/07 10:33:49;;;;;;;3.90;1.50;;;;;;;10.96;100.00;100740.28;5032591;28;20068;-36
2023/01/07 10:36:37;;;;;;;3.45;1.17;;;;;;;11.00;100.00;100727.25;5034680;28;20163;-37
2023/01/07 10:39:29;;;;;;;4.90;1.10;;;;;;;11.19;100.00;100732.06;5050855;28;20116;-36
2023/01/07 10:42:22;;;;;;;3.40;1.00;;;;;;;11.15;100.00;100719.16;5048767;28;20088;-37
2023/01/07 10:44:56;;;;;;;3.78;1.20;;;;;;;11.30;100.00;100729.91;5052808;28;20033;-39
2023/01/07 10:47:28;;;;;;;4.13;1.05;;;;;;;11.37;100.00;100711.94;5037320;28;20041;-38
2023/01/07 10:50:06;;;;;;;2.25;1.13;;;;;;;11.47;100.00;100711.66;5036500;28;20053;-40
2023/01/07 10:52:31;;;;;;;;;;;;;;;11.40;100.00;100703.47;5036503;28;20061;-37
2023/01/07 10:55:17;;;;;;;3.63;1.13;;;;;;;11.58;100.00;100687.69;5042197;28;20201;-37
2023/01/07 10:57:43;;;;;;;3.10;1.30;;;;;;;11.60;100.00;100674.88;5047617;28;20294;-36
2023/01/07 11:00:13;;;;;;;3.00;0.82;;;;;;;11.68;100.00;100665.00;5050744;28;20025;-39
2023/01/07 11:02:42;;;;;;;2.25;1.50;;;;;;;11.56;100.00;100688.94;5036016;28;20104;-39
2023/01/07 11:05:09;;;;;;;0.90;0.82;;;;;;;11.35;100.00;100657.44;5042571;28;20040;-39
2023/01/07 11:07:43;;;;;;;1.37;1.20;;;;;;;11.41;100.00;100670.13;5033081;28;20029;-37
2023/01/07 11:10:14;;;;;;;2.88;1.00;;;;;;;11.21;100.00;100659.97;5043480;28;20340;-36
2023/01/07 11:12:44;;;;;;;3.15;0.90;;;;;;;11.13;100.00;100638.53;5042577;28;20055;-37
2023/01/07 11:15:17;;;;;;;1.13;0.90;;;;;;;10.97;100.00;100630.69;5041918;28;20053;-36
2023/01/07 11:17:48;;;;;;;1.73;1.10;;;;;;;10.81;100.00;100633.63;5031800;28;20060;-36
2023/01/07 11:20:43;;;;;;;2.30;1.35;;;;;;;10.81;100.00;100647.91;5032475;28;20374;-37
2023/01/07 11:23:29;;;;;;;1.10;1.00;;;;;;;10.90;100.00;100645.94;5037582;28;20060;-38
2023/01/07 11:26:14;;;;;;;0.68;0.68;;;;;;;10.90;100.00;100636.03;5040069;28;20116;-36